createdAt,value
2022-10-22T00:00:08.289Z,1.95
2022-10-22T00:05:08.427Z,1.70
2022-10-22T00:10:08.357Z,2.10
2022-10-22T00:15:08.379Z,2.33
2022-10-22T00:20:08.261Z,1.95
2022-10-22T00:25:07.941Z,2.03
2022-10-22T00:30:08.628Z,2.20
2022-10-22T00:35:08.417Z,2.22
2022-10-22T00:40:08.961Z,2.45
2022-10-22T00:45:07.639Z,1.85
2022-10-22T00:50:08.319Z,2.20
2022-10-22T00:55:08.260Z,2.08
2022-10-22T01:00:08.205Z,2.08
2022-10-22T01:05:08.112Z,2.70
2022-10-22T01:10:08.974Z,2.05
2022-10-22T01:15:07.644Z,2.03
2022-10-22T01:20:08.361Z,1.90
2022-10-22T01:25:08.028Z,2.10
2022-10-22T01:30:07.730Z,2.45
2022-10-22T01:35:08.449Z,2.13
2022-10-22T01:40:08.377Z,2.33
2022-10-22T01:45:08.057Z,2.40
2022-10-22T01:50:07.747Z,2.30
2022-10-22T01:55:08.449Z,2.22
2022-10-22T02:00:08.217Z,2.42
2022-10-22T02:05:08.269Z,2.70
2022-10-22T02:10:08.341Z,2.17
2022-10-22T02:15:08.533Z,2.63
2022-10-22T02:20:08.261Z,2.53
2022-10-22T02:25:08.350Z,2.30
2022-10-22T02:30:08.578Z,2.50
2022-10-22T02:35:07.707Z,2.38
2022-10-22T02:40:08.411Z,2.50
2022-10-22T02:45:08.639Z,2.50
2022-10-22T02:50:10.296Z,2.75
2022-10-22T02:55:08.255Z,2.70
2022-10-22T03:00:07.945Z,3.15
2022-10-22T03:05:08.965Z,2.70
2022-10-22T03:10:07.668Z,2.53
2022-10-22T03:15:08.376Z,2.72
2022-10-22T03:20:08.290Z,2.92
2022-10-22T03:25:08.019Z,2.63
2022-10-22T03:30:07.736Z,2.70
2022-10-22T03:35:08.435Z,3.22
2022-10-22T03:40:08.160Z,3.28
2022-10-22T03:45:07.877Z,2.80
2022-10-22T03:50:08.623Z,2.55
2022-10-22T03:55:08.318Z,2.85
2022-10-22T04:00:08.023Z,3.20
2022-10-22T04:05:01.972Z,2.97
2022-10-22T04:10:01.922Z,2.60
2022-10-22T04:15:02.839Z,2.70
2022-10-22T04:20:02.704Z,2.63
2022-10-22T04:25:02.652Z,2.17
2022-10-22T04:30:02.821Z,2.78
2022-10-22T04:35:02.605Z,2.83
2022-10-22T04:40:02.740Z,2.22
2022-10-22T04:45:02.658Z,3.20
2022-10-22T04:50:02.401Z,2.45
2022-10-22T04:55:02.117Z,3.42
2022-10-22T05:00:01.861Z,3.22
2022-10-22T05:05:02.588Z,2.65
2022-10-22T05:10:02.316Z,2.65
2022-10-22T05:15:02.043Z,3.08
2022-10-22T05:20:01.775Z,2.38
2022-10-22T05:25:02.547Z,2.50
2022-10-22T05:30:02.360Z,3.03
2022-10-22T05:35:02.183Z,2.85
2022-10-22T05:40:12.716Z,2.70
2022-10-22T05:45:02.566Z,2.78
2022-10-22T05:50:02.372Z,3.38
2022-10-22T05:55:02.126Z,2.80
2022-10-22T06:00:01.990Z,3.40
2022-10-22T06:05:01.797Z,2.50
2022-10-22T06:10:02.595Z,2.60
2022-10-22T06:15:02.377Z,2.70
2022-10-22T06:20:02.240Z,3.17
2022-10-22T06:25:02.103Z,2.55
2022-10-22T06:30:01.856Z,2.80
2022-10-22T06:35:02.600Z,2.92
2022-10-22T06:40:02.415Z,2.70
2022-10-22T06:50:02.293Z,2.70
2022-10-22T06:55:02.193Z,2.22
2022-10-22T07:00:02.026Z,2.60
2022-10-22T07:05:01.989Z,2.40
2022-10-22T07:10:01.900Z,2.95
2022-10-22T07:15:02.724Z,2.50
2022-10-22T07:20:02.560Z,2.28
2022-10-22T07:25:07.179Z,2.47
2022-10-22T07:30:02.222Z,2.17
2022-10-22T07:35:01.976Z,2.30
2022-10-22T07:40:03.851Z,2.40
2022-10-22T07:45:02.133Z,2.30
2022-10-22T07:50:02.050Z,2.30
2022-10-22T07:55:01.800Z,2.22
2022-10-22T08:00:02.546Z,2.40
2022-10-22T08:05:02.375Z,1.70
2022-10-22T08:10:02.197Z,2.20
2022-10-22T08:15:02.089Z,2.00
2022-10-22T08:25:02.436Z,1.88
2022-10-22T08:30:02.227Z,2.22
2022-10-22T08:35:02.070Z,2.72
2022-10-22T08:40:01.890Z,2.58
2022-10-22T08:45:02.625Z,2.35
2022-10-22T08:50:02.582Z,1.90
2022-10-22T08:55:02.396Z,2.10
2022-10-22T09:00:02.330Z,2.25
2022-10-22T09:05:02.142Z,2.50
2022-10-22T09:10:01.899Z,1.80
2022-10-22T09:15:02.716Z,2.33
2022-10-22T09:20:02.470Z,2.55
2022-10-22T09:25:02.494Z,1.80
2022-10-22T09:30:02.319Z,2.30
2022-10-22T09:35:02.234Z,2.30
2022-10-22T09:40:02.095Z,2.00
2022-10-22T09:45:02.014Z,1.63
2022-10-22T09:50:11.925Z,0
2022-10-22T09:55:01.808Z,1.83
2022-10-22T10:00:02.723Z,2.10
2022-10-22T10:05:02.483Z,1.98
2022-10-22T10:10:02.287Z,1.73
2022-10-22T10:15:02.102Z,2.22
2022-10-22T10:20:03.971Z,2.28
2022-10-22T10:25:02.319Z,1.90
2022-10-22T10:30:02.325Z,1.95
2022-10-22T10:35:02.136Z,2.17
2022-10-22T10:40:02.061Z,2.63
2022-10-22T10:45:02.024Z,2.20
2022-10-22T10:50:01.823Z,1.75
2022-10-22T10:55:02.589Z,2.17
2022-10-22T11:00:02.402Z,1.95
2022-10-22T11:05:02.155Z,2.03
2022-10-22T11:10:01.968Z,1.90
2022-10-22T11:15:01.803Z,2.60
2022-10-22T11:20:02.549Z,2.33
2022-10-22T11:25:02.355Z,1.67
2022-10-22T11:30:02.096Z,2.28
2022-10-22T11:35:01.818Z,2.15
2022-10-22T11:40:02.661Z,2.00
2022-10-22T11:45:02.438Z,2.30
2022-10-22T11:50:02.351Z,2.55
2022-10-22T11:55:02.168Z,1.70
2022-10-22T12:00:01.988Z,2.00
2022-10-22T12:05:01.693Z,1.98
2022-10-22T12:10:02.552Z,1.65
2022-10-22T12:15:02.490Z,2.10
2022-10-22T12:20:02.826Z,1.83
2022-10-22T12:25:01.957Z,2.03
2022-10-22T12:30:01.853Z,2.30
2022-10-22T12:35:02.730Z,1.77
2022-10-22T12:40:02.662Z,2.28
2022-10-22T12:45:02.592Z,1.60
2022-10-22T12:50:02.414Z,1.85
2022-10-22T12:55:02.241Z,2.03
2022-10-22T13:00:02.130Z,1.70
2022-10-22T13:05:01.994Z,1.83
2022-10-22T13:10:01.842Z,1.77
2022-10-22T13:15:02.704Z,1.60
2022-10-22T13:20:02.501Z,1.33
2022-10-22T13:25:02.254Z,1.48
2022-10-22T13:30:02.071Z,1.65
2022-10-22T13:35:02.010Z,1.70
2022-10-22T13:40:01.835Z,1.98
2022-10-22T13:45:02.681Z,1.63
2022-10-22T13:50:02.639Z,2.17
2022-10-22T13:55:02.443Z,1.75
2022-10-22T14:00:02.369Z,2.35
2022-10-22T14:05:02.199Z,2.05
2022-10-22T14:10:02.002Z,1.55
2022-10-22T14:15:01.846Z,1.80
2022-10-22T14:20:02.738Z,1.50
2022-10-22T14:25:02.550Z,1.75
2022-10-22T14:30:02.444Z,1.55
2022-10-22T14:35:02.301Z,1.60
2022-10-22T14:40:02.163Z,1.80
2022-10-22T14:45:01.955Z,1.20
2022-10-22T14:50:02.816Z,1.60
2022-10-22T14:55:02.740Z,1.60
2022-10-22T15:00:02.669Z,1.50
2022-10-22T15:05:02.591Z,1.52
2022-10-22T15:10:02.435Z,1.33
2022-10-22T15:15:02.426Z,1.40
2022-10-22T15:20:02.305Z,1.30
2022-10-22T15:25:02.233Z,1.50
2022-10-22T15:35:01.891Z,1.52
2022-10-22T15:40:02.748Z,1.63
2022-10-22T15:45:02.828Z,1.17
2022-10-22T15:50:02.582Z,1.20
2022-10-22T15:55:02.424Z,1.73
2022-10-22T16:00:02.245Z,1.55
2022-10-22T16:05:11.955Z,0
2022-10-22T16:10:01.741Z,1.30
2022-10-22T16:15:02.557Z,1.55
2022-10-22T16:20:02.496Z,1.60
2022-10-22T16:25:02.404Z,1.50
2022-10-22T16:30:02.190Z,1.20
2022-10-22T16:35:01.967Z,1.45
2022-10-22T16:40:04.515Z,1.52
2022-10-22T16:45:01.931Z,2.00
2022-10-22T16:50:02.770Z,1.75
2022-10-22T16:55:02.611Z,1.88
2022-10-22T17:00:02.559Z,2.22
2022-10-22T17:05:04.033Z,2.00
2022-10-22T17:10:01.991Z,1.90
2022-10-22T17:15:04.063Z,1.63
2022-10-22T17:20:01.927Z,1.65
2022-10-22T17:25:02.765Z,1.45
2022-10-22T17:30:02.688Z,1.95
2022-10-22T17:35:04.575Z,1.90
2022-10-22T17:40:02.548Z,1.80
2022-10-22T17:45:02.596Z,2.08
2022-10-22T17:50:04.869Z,1.80
2022-10-22T17:55:02.827Z,1.92
2022-10-22T18:00:04.979Z,1.80
2022-10-22T18:05:02.038Z,1.73
2022-10-22T18:10:04.366Z,1.60
2022-10-22T18:15:02.263Z,2.17
2022-10-22T18:20:04.559Z,2.17
2022-10-22T18:25:02.518Z,3.00
2022-10-22T18:30:02.366Z,2.85
2022-10-22T18:35:02.177Z,2.70
2022-10-22T18:40:02.025Z,2.65
2022-10-22T18:45:01.847Z,2.33
2022-10-22T18:50:02.673Z,2.22
2022-10-22T18:55:02.482Z,2.30
2022-10-22T19:00:02.226Z,1.80
2022-10-22T19:05:02.122Z,1.95
2022-10-22T19:10:01.871Z,1.70
2022-10-22T19:15:02.618Z,1.80
2022-10-22T19:20:02.506Z,2.22
2022-10-22T19:25:02.289Z,2.03
2022-10-22T19:30:02.140Z,1.83
2022-10-22T19:35:01.934Z,1.92
2022-10-22T19:40:02.743Z,2.33
2022-10-22T19:45:02.563Z,2.70
2022-10-22T19:50:02.354Z,2.85
2022-10-22T19:55:02.076Z,3.17
2022-10-22T20:00:01.939Z,3.08
2022-10-22T20:05:03.092Z,3.20
2022-10-22T20:10:01.970Z,2.22
2022-10-22T20:15:01.918Z,2.40
2022-10-22T20:20:02.845Z,2.50
2022-10-22T20:25:02.684Z,2.17
2022-10-22T20:30:02.549Z,2.30
2022-10-22T20:35:02.457Z,2.22
2022-10-22T20:40:02.374Z,2.63
2022-10-22T20:45:02.213Z,2.63
2022-10-22T20:50:02.035Z,2.10
2022-10-22T20:55:01.848Z,2.30
2022-10-22T21:00:02.605Z,2.53
2022-10-22T21:05:02.619Z,2.38
2022-10-22T21:10:02.494Z,2.38
2022-10-22T21:15:02.296Z,2.60
2022-10-22T21:20:02.178Z,2.35
2022-10-22T21:25:01.973Z,2.40
2022-10-22T21:30:01.797Z,2.17
2022-10-22T21:35:15.438Z,2.20
2022-10-22T21:40:08.120Z,2.20
2022-10-22T21:45:12.173Z,2.17
2022-10-22T21:50:07.866Z,2.60
2022-10-22T21:55:08.559Z,2.40
2022-10-22T22:00:08.286Z,2.45
2022-10-22T22:05:07.974Z,2.83
2022-10-22T22:10:08.469Z,2.85
2022-10-22T22:15:08.152Z,3.17
2022-10-22T22:20:07.869Z,2.85
2022-10-22T22:25:08.579Z,3.13
2022-10-22T22:30:08.289Z,2.95
2022-10-22T22:35:07.962Z,2.85
2022-10-22T22:40:07.704Z,2.83
2022-10-22T22:45:08.426Z,3.00
2022-10-22T22:50:08.164Z,2.83
2022-10-22T22:55:07.882Z,3.58
2022-10-22T23:01:03.403Z,4.00
2022-10-22T23:05:08.137Z,3.40
2022-10-22T23:10:08.399Z,3.53
2022-10-22T23:15:08.115Z,3.35
2022-10-22T23:20:07.905Z,3.25
2022-10-22T23:25:08.622Z,3.38
2022-10-22T23:30:08.378Z,3.92
2022-10-22T23:35:08.068Z,3.40
2022-10-22T23:40:07.790Z,3.60
2022-10-22T23:45:08.493Z,3.13
2022-10-22T23:50:08.179Z,3.13
2022-10-22T23:55:07.868Z,3.60
